Latest Weather Observations for St Kilda Harbour RMYS

IDV60901

Issued at 7:41 am EDT Wednesday 21 October 2020 (issued every 10 minutes, with the page automatically refreshed every 10 minutes)

About weather observations | Map of Melbourne area stations | Latest observations for Melbourne area | Other Formats
Station Details ID: 086220 Name: ST KILDA HARBOUR - RMYS Lat: -37.86 Lon: 144.96 Height: 6.4 m
Data from the previous 72 hours. | See also: Recent months at St Kilda Harbour RMYS
Date/Time
EDT
Temp
°C
App
Temp
°C
Dew
Point
°C
Rel
Hum
%
Delta-T
°C
Wind Press
QNH
hPa
Press
MSL
hPa
Rain since
9am
mm
Dir  Spd
km/h
Gust
km/h
Spd
kts
Gust
kts
21/07:30am - - - - - NW 7 9 4 5 - - -
21/07:00am - - - - - WNW 7 9 4 5 - - -
21/06:30am - - - - - N 4 6 2 3 - - -
21/06:00am - - - - - SE 4 4 2 2 - - -
21/05:30am - - - - - SE 6 7 3 4 - - -
21/05:00am - - - - - S 4 6 2 3 - - -
21/04:30am - - - - - SW 2 4 1 2 - - -
21/04:00am - - - - - E 4 6 2 3 - - -
21/03:30am - - - - - ESE 4 4 2 2 - - -
21/03:00am - - - - - SE 6 7 3 4 - - -
21/02:30am - - - - - SE 6 7 3 4 - - -
21/02:00am - - - - - SSE 4 7 2 4 - - -
21/01:30am - - - - - ESE 6 7 3 4 - - -
21/01:00am - - - - - SE 7 11 4 6 - - -
21/12:30am - - - - - SSE 7 11 4 6 - - -
21/12:00am - - - - - SSE 13 17 7 9 - - -
 
Date/Time
EDT
Temp
°C
App
Temp
°C
Dew
Point
°C
Rel
Hum
%
Delta-T
°C
Wind Press
QNH
hPa
Press
MSL
hPa
Rain since
9am
mm
Dir  Spd
km/h
Gust
km/h
Spd
kts
Gust
kts
20/11:30pm - - - - - SE 11 17 6 9 - - -
20/11:00pm - - - - - SE 11 15 6 8 - - -
20/10:30pm - - - - - SE 9 15 5 8 - - -
20/10:00pm - - - - - SE 13 19 7 10 - - -
20/09:30pm - - - - - SE 13 17 7 9 - - -
20/09:00pm - - - - - SE 17 22 9 12 - - -
20/08:30pm - - - - - SE 17 22 9 12 - - -
20/08:00pm - - - - - SSE 20 28 11 15 - - -
20/07:30pm - - - - - SSE 26 30 14 16 - - -
20/07:00pm - - - - - S 26 32 14 17 - - -
20/06:30pm - - - - - S 30 35 16 19 - - -
20/06:00pm - - - - - S 30 35 16 19 - - -
20/05:30pm - - - - - S 28 32 15 17 - - -
20/05:00pm - - - - - S 24 28 13 15 - - -
20/04:30pm - - - - - S 24 28 13 15 - - -
20/04:00pm - - - - - SSW 24 28 13 15 - - -
20/03:30pm - - - - - SSW 24 28 13 15 - - -
20/03:00pm - - - - - SSW 22 24 12 13 - - -
20/02:30pm - - - - - SSW 20 24 11 13 - - -
20/02:00pm - - - - - SSW 17 20 9 11 - - -
20/01:30pm - - - - - SSW 19 22 10 12 - - -
20/01:00pm - - - - - SSW 19 20 10 11 - - -
20/12:30pm - - - - - SSW 19 20 10 11 - - -
20/12:00pm - - - - - SW 19 20 10 11 - - -
20/11:30am - - - - - SSW 19 20 10 11 - - -
20/11:00am - - - - - SSW 17 19 9 10 - - -
20/10:30am - - - - - SSW 19 20 10 11 - - -
20/10:00am - - - - - SSW 17 20 9 11 - - -
20/09:30am - - - - - SSW 13 17 7 9 - - -
20/09:00am - - - - - S 7 11 4 6 - - -
20/08:30am - - - - - SSE 7 11 4 6 - - -
20/08:00am - - - - - SE 7 9 4 5 - - -
20/07:30am - - - - - SE 7 11 4 6 - - -
20/07:00am - - - - - SE 6 9 3 5 - - -
20/06:30am - - - - - SE 6 9 3 5 - - -
20/06:00am - - - - - SE 4 6 2 3 - - -
20/05:30am - - - - - SE 6 7 3 4 - - -
20/05:00am - - - - - SE 4 6 2 3 - - -
20/04:30am - - - - - SE 4 6 2 3 - - -
20/04:00am - - - - - SE 2 6 1 3 - - -
20/03:30am - - - - - ESE 6 7 3 4 - - -
20/03:00am - - - - - ESE 6 7 3 4 - - -
20/02:30am - - - - - E 6 7 3 4 - - -
20/02:00am - - - - - E 6 7 3 4 - - -
20/01:30am - - - - - E 6 9 3 5 - - -
20/01:00am - - - - - E 6 7 3 4 - - -
20/12:30am - - - - - E 7 9 4 5 - - -
20/12:00am - - - - - ESE 7 11 4 6 - - -
 
Date/Time
EDT
Temp
°C
App
Temp
°C
Dew
Point
°C
Rel
Hum
%
Delta-T
°C
Wind Press
QNH
hPa
Press
MSL
hPa
Rain since
9am
mm
Dir  Spd
km/h
Gust
km/h
Spd
kts
Gust
kts
19/11:30pm - - - - - ESE 7 11 4 6 - - -
19/11:00pm - - - - - ESE 7 9 4 5 - - -
19/10:30pm - - - - - ESE 9 11 5 6 - - -
19/10:00pm - - - - - ESE 9 13 5 7 - - -
19/09:30pm - - - - - SE 13 19 7 10 - - -
19/09:00pm - - - - - SSE 19 24 10 13 - - -
19/08:30pm - - - - - S 26 32 14 17 - - -
19/08:00pm - - - - - S 26 32 14 17 - - -
19/07:30pm - - - - - S 28 32 15 17 - - -
19/07:00pm - - - - - S 26 32 14 17 - - -
19/06:30pm - - - - - S 26 33 14 18 - - -
19/06:00pm - - - - - S 24 28 13 15 - - -
19/05:30pm - - - - - S 22 28 12 15 - - -
19/05:00pm - - - - - S 20 24 11 13 - - -
19/04:30pm - - - - - S 20 26 11 14 - - -
19/04:00pm - - - - - S 19 24 10 13 - - -
19/03:30pm - - - - - S 19 22 10 12 - - -
19/03:00pm - - - - - S 20 24 11 13 - - -
19/02:30pm - - - - - SSW 26 30 14 16 - - -
19/02:00pm - - - - - S 20 26 11 14 - - -
19/01:30pm - - - - - S 24 30 13 16 - - -
19/01:00pm - - - - - SSW 19 24 10 13 - - -
19/12:30pm - - - - - SSW 15 20 8 11 - - -
19/12:00pm - - - - - SSE 6 7 3 4 - - -
19/11:30am - - - - - SSW 4 7 2 4 - - -
19/11:00am - - - - - SW 7 11 4 6 - - -
19/10:30am - - - - - WSW 4 7 2 4 - - -
19/10:00am - - - - - NW 4 7 2 4 - - -
19/09:30am - - - - - NNW 4 7 2 4 - - -
19/09:00am - - - - - WSW 2 6 1 3 - - -
19/08:30am - - - - - CALM 0 2 0 1 - - -
19/08:00am - - - - - NW 2 4 1 2 - - -
19/07:30am - - - - - NW 6 7 3 4 - - -
19/07:00am - - - - - NNW 7 9 4 5 - - -
19/06:30am - - - - - NNW 9 11 5 6 - - -
19/06:00am - - - - - WNW 13 17 7 9 - - -
19/05:30am - - - - - NW 7 11 4 6 - - -
19/05:00am - - - - - WNW 9 13 5 7 - - -
19/04:30am - - - - - W 13 17 7 9 - - -
19/04:00am - - - - - WNW 13 17 7 9 - - -
19/03:30am - - - - - WNW 13 17 7 9 - - -
19/03:00am - - - - - W 13 17 7 9 - - -
19/02:30am - - - - - W 17 20 9 11 - - -
19/02:00am - - - - - WSW 20 24 11 13 - - -
19/01:30am - - - - - WSW 22 26 12 14 - - -
19/01:00am - - - - - WSW 24 28 13 15 - - -
19/12:30am - - - - - SSW 20 24 11 13 - - -
19/12:00am - - - - - SSW 22 28 12 15 - - -
 
Date/Time
EDT
Temp
°C
App
Temp
°C
Dew
Point
°C
Rel
Hum
%
Delta-T
°C
Wind Press
QNH
hPa
Press
MSL
hPa
Rain since
9am
mm
Dir  Spd
km/h
Gust
km/h
Spd
kts
Gust
kts
18/11:30pm - - - - - S 19 24 10 13 - - -
18/11:00pm - - - - - S 19 24 10 13 - - -
18/10:30pm - - - - - S 19 26 10 14 - - -
18/10:00pm - - - - - S 22 28 12 15 - - -
18/09:30pm - - - - - S 22 28 12 15 - - -
18/09:00pm - - - - - S 22 28 12 15 - - -
18/08:30pm - - - - - S 24 30 13 16 - - -
18/08:00pm - - - - - S 22 26 12 14 - - -
18/07:30pm - - - - - S 22 28 12 15 - - -
18/07:00pm - - - - - S 20 28 11 15 - - -
18/06:30pm - - - - - S 17 20 9 11 - - -
18/06:00pm - - - - - S 20 24 11 13 - - -
18/05:30pm - - - - - S 24 28 13 15 - - -
18/05:00pm - - - - - S 26 32 14 17 - - -
18/04:30pm - - - - - S 22 28 12 15 - - -
18/04:00pm - - - - - SSW 22 28 12 15 - - -
18/03:30pm - - - - - SSW 20 24 11 13 - - -
18/03:00pm - - - - - S 22 28 12 15 - - -
18/02:30pm - - - - - S 20 28 11 15 - - -
18/02:00pm - - - - - SSW 22 30 12 16 - - -
18/01:30pm - - - - - S 24 28 13 15 - - -
18/01:00pm - - - - - SSW 32 37 17 20 - - -
18/12:30pm - - - - - S 20 26 11 14 - - -
18/12:00pm - - - - - S 28 33 15 18 - - -
18/11:30am - - - - - S 22 28 12 15 - - -
18/11:00am - - - - - S 22 30 12 16 - - -
18/10:30am - - - - - S 32 39 17 21 - - -
18/10:00am - - - - - SSW 33 41 18 22 - - -
18/09:30am - - - - - S 28 35 15 19 - - -
18/09:00am - - - - - S 30 35 16 19 - - -
18/08:30am - - - - - S 35 43 19 23 - - -
18/08:00am - - - - - SSW 37 44 20 24 - - -

Latest Capital City Observations: Canberra | Sydney | Melbourne | Brisbane | Adelaide | Perth | Hobart | Darwin

Other formats

Comma delimited format used in spreadsheet applications
http://www.bom.gov.au/fwo/IDV60901/IDV60901.95864.axf

JavaScript Object Notation format (JSON) in row-major order
http://www.bom.gov.au/fwo/IDV60901/IDV60901.95864.json

Data quality

Most of these data are generated automatically and are frequently updated. Quality checks on data are not normally performed. It is possible for incorrect values to appear. Refer to information at About Latest Weather Observations and please check the disclaimer before using these data.